Belding, MI

12:49 AM EDT on April 21, 2018 (GMT -0400)
MMIBEL | | Change Station
Active Advisory: Flood Advisory Active Notice: Flood Advisory

Elev 839 ft 43.11 °N, 85.31 °W | Updated 11 minutes ago

Clear
Clear
40.0 °F
Feels Like 40.0 °F
N
2.0
Wind Variable Wind from NW

Today
High -- | Low -- °F
--% Chance of Precip.
Yesterday
High -- | Low -- °F
Precip. -- in
Pressure 30.43 in
Visibility 10.0 miles
Clouds Clear
Dew Point 23.0 °F
Humidity 50%
Rainfall in
Snow Depth Not available.
6:49 AM 8:30 PM
Waxing Crescent, 31% visible
METAR KY70 210435Z AUTO 29004KT 10SM CLR 05/M06 A3043 RMK AO2 T00501056
Pressure 30.43 in
Visibility 10.0 miles
Clouds Clear
Dew Point 23.0 °F
Humidity 50%
Rainfall in
Snow Depth Not available.
6:49 AM 8:30 PM
Waxing Crescent, 31% visible
METAR KY70 210435Z AUTO 29004KT 10SM CLR 05/M06 A3043 RMK AO2 T00501056

Get Your Daily Forecast Email!

Thanks for signing up!

Be on the lookout for a verification email in your inbox.

You'll start receiving severe weather alerts in your inbox..

×

10-Day Weather Forecast

Almanac

Astronomy

Apr. 21, 2018 Rise Set
Actual Time
Civil Twilight
Nautical Twilight
Astronomical Twilight
Moon
Length of Visible Light
Length of Day
Tomorrow will be .
, % of the Moon is Illuminated

Today's Extremes

State Highs State Lows

Community

WunderPhotos

Category 6

Welcome to Category 6. This is the collective home for Weather Underground's featured writeups by Dr. Jeff Masters (right), Bob Henson (left), Chris Burt, and other regular contributors.

Nearby

Air Quality

  Air Quality AQ Index Pollutant
Not available.

Snow Depth

Station Depth Elevation

Earthquake Activity

City Distance Mag. Time & Date
Minimum magnitude displayed is 2.5.

Coastal Water Temperatures

Place Temperature

Stations

Nearby Weather Stations

Station Location Temp. Windchill Dew Point Humidity Wind Precip. Elev Updated Type
                   

Watches & Warnings

Flood Advisory
Issued: 9:41 PM EDT Apr. 20, 2018 – National Weather Service

The flood advisory continues for
the Grand River at Ionia
* until Friday April 27.
* At 08 PM Friday the stage was 17.0 feet.
* Bankfull stage is 13.5 feet.
* Flood stage is 21.0 feet.
* Forecast, the river will continue to fall.
* Impact, at 18.0 feet... water surrounds automobile building at Ionia
Fairgrounds.


Lat... Lon 4297 8524 4303 8488 4296 8499 4290 8521





941 PM EDT Fri Apr 20 2018

The flood advisory continues for
the Grand River at Ionia
* until Friday April 27.
* At 08 PM Friday the stage was 17.0 feet.
* Bankfull stage is 13.5 feet.
* Flood stage is 21.0 feet.
* Forecast, the river will continue to fall.
* Impact, at 18.0 feet... water surrounds automobile building at Ionia
Fairgrounds.


Lat... Lon 4297 8524 4303 8488 4296 8499 4290 8521